sensor_id;sensor_type;location;lat;lon;timestamp;pressure;altitude;pressure_sealevel;temperature;humidity
60974;BME280;46846;51.528;5.076;2023-11-21T00:00:42;100548.03;;;6.78;87.88
60974;BME280;46846;51.528;5.076;2023-11-21T00:03:07;100546.31;;;6.77;87.42
60974;BME280;46846;51.528;5.076;2023-11-21T00:05:32;100541.94;;;6.76;87.51
60974;BME280;46846;51.528;5.076;2023-11-21T00:07:57;100555.16;;;6.76;87.62
60974;BME280;46846;51.528;5.076;2023-11-21T00:10:23;100559.53;;;6.77;87.81
60974;BME280;46846;51.528;5.076;2023-11-21T00:12:48;100559.56;;;6.75;87.63
60974;BME280;46846;51.528;5.076;2023-11-21T00:15:13;100555.19;;;6.73;87.56
60974;BME280;46846;51.528;5.076;2023-11-21T00:17:39;100557.84;;;6.73;87.81
60974;BME280;46846;51.528;5.076;2023-11-21T00:20:05;100560.50;;;6.73;87.73
60974;BME280;46846;51.528;5.076;2023-11-21T00:22:32;100548.25;;;6.70;87.60
60974;BME280;46846;51.528;5.076;2023-11-21T00:24:57;100549.13;;;6.69;87.94
60974;BME280;46846;51.528;5.076;2023-11-21T00:27:22;100550.94;;;6.67;87.52
60974;BME280;46846;51.528;5.076;2023-11-21T00:29:48;100550.91;;;6.68;87.64
60974;BME280;46846;51.528;5.076;2023-11-21T00:32:13;100554.47;;;6.67;87.52
60974;BME280;46846;51.528;5.076;2023-11-21T00:34:38;100558.88;;;6.67;87.83
60974;BME280;46846;51.528;5.076;2023-11-21T00:37:03;100562.38;;;6.67;87.30
60974;BME280;46846;51.528;5.076;2023-11-21T00:39:29;100559.78;;;6.66;87.55
60974;BME280;46846;51.528;5.076;2023-11-21T00:41:54;100558.88;;;6.65;87.52
60974;BME280;46846;51.528;5.076;2023-11-21T00:44:19;100557.16;;;6.64;87.62
60974;BME280;46846;51.528;5.076;2023-11-21T00:46:44;100564.25;;;6.62;87.82
60974;BME280;46846;51.528;5.076;2023-11-21T00:49:10;100565.16;;;6.61;87.48
60974;BME280;46846;51.528;5.076;2023-11-21T00:51:35;100560.78;;;6.60;87.85
60974;BME280;46846;51.528;5.076;2023-11-21T00:54:01;100566.09;;;6.59;87.47
60974;BME280;46846;51.528;5.076;2023-11-21T00:56:26;100566.09;;;6.59;87.65
60974;BME280;46846;51.528;5.076;2023-11-21T00:58:51;100570.56;;;6.56;87.39
60974;BME280;46846;51.528;5.076;2023-11-21T01:01:18;100580.25;;;6.56;87.58
60974;BME280;46846;51.528;5.076;2023-11-21T01:03:43;100574.97;;;6.56;87.49
60974;BME280;46846;51.528;5.076;2023-11-21T01:06:08;100581.16;;;6.55;87.66
60974;BME280;46846;51.528;5.076;2023-11-21T01:08:34;100581.19;;;6.53;87.59
60974;BME280;46846;51.528;5.076;2023-11-21T01:10:59;100588.25;;;6.53;87.57
60974;BME280;46846;51.528;5.076;2023-11-21T01:13:24;100584.75;;;6.51;87.81
60974;BME280;46846;51.528;5.076;2023-11-21T01:15:54;100592.69;;;6.51;87.72
60974;BME280;46846;51.528;5.076;2023-11-21T01:18:19;100589.22;;;6.49;87.39
60974;BME280;46846;51.528;5.076;2023-11-21T01:20:45;100584.84;;;6.48;88.09
60974;BME280;46846;51.528;5.076;2023-11-21T01:23:12;100591.88;;;6.47;87.90
60974;BME280;46846;51.528;5.076;2023-11-21T01:25:37;100592.84;;;6.45;87.90
60974;BME280;46846;51.528;5.076;2023-11-21T01:28:02;100595.50;;;6.45;87.74
60974;BME280;46846;51.528;5.076;2023-11-21T01:30:28;100601.66;;;6.43;87.66
60974;BME280;46846;51.528;5.076;2023-11-21T01:32:53;100599.06;;;6.42;87.32
60974;BME280;46846;51.528;5.076;2023-11-21T01:35:18;100600.00;;;6.39;87.66
60974;BME280;46846;51.528;5.076;2023-11-21T01:37:44;100598.25;;;6.38;87.90
60974;BME280;46846;51.528;5.076;2023-11-21T01:40:09;100603.53;;;6.38;87.83
60974;BME280;46846;51.528;5.076;2023-11-21T01:42:35;100604.44;;;6.37;87.92
60974;BME280;46846;51.528;5.076;2023-11-21T01:45:01;100612.41;;;6.36;87.84
60974;BME280;46846;51.528;5.076;2023-11-21T01:47:29;100611.56;;;6.34;87.55
60974;BME280;46846;51.528;5.076;2023-11-21T01:49:55;100615.97;;;6.33;87.50
60974;BME280;46846;51.528;5.076;2023-11-21T01:52:20;100618.63;;;6.32;87.67
60974;BME280;46846;51.528;5.076;2023-11-21T01:54:45;100623.06;;;6.31;87.60
60974;BME280;46846;51.528;5.076;2023-11-21T01:57:11;100632.75;;;6.31;87.56
60974;BME280;46846;51.528;5.076;2023-11-21T01:59:37;100630.16;;;6.29;87.87
60974;BME280;46846;51.528;5.076;2023-11-21T02:02:06;100629.28;;;6.28;87.63
60974;BME280;46846;51.528;5.076;2023-11-21T02:04:34;100627.53;;;6.27;87.98
60974;BME280;46846;51.528;5.076;2023-11-21T02:07:01;100633.75;;;6.25;87.92
60974;BME280;46846;51.528;5.076;2023-11-21T02:09:27;100634.66;;;6.25;87.49
60974;BME280;46846;51.528;5.076;2023-11-21T02:11:54;100638.16;;;6.24;88.16
60974;BME280;46846;51.528;5.076;2023-11-21T02:14:20;100636.41;;;6.23;87.95
60974;BME280;46846;51.528;5.076;2023-11-21T02:16:48;100640.84;;;6.23;87.89
60974;BME280;46846;51.528;5.076;2023-11-21T02:19:15;100639.97;;;6.22;87.72
60974;BME280;46846;51.528;5.076;2023-11-21T02:21:43;100642.59;;;6.22;87.83
60974;BME280;46846;51.528;5.076;2023-11-21T02:24:10;100645.28;;;6.21;87.46
60974;BME280;46846;51.528;5.076;2023-11-21T02:26:35;100653.19;;;6.21;87.97
60974;BME280;46846;51.528;5.076;2023-11-21T02:29:00;100655.84;;;6.21;87.58
60974;BME280;46846;51.528;5.076;2023-11-21T02:31:26;100657.66;;;6.19;87.82
60974;BME280;46846;51.528;5.076;2023-11-21T02:33:52;100662.03;;;6.20;87.40
60974;BME280;46846;51.528;5.076;2023-11-21T02:36:18;100648.00;;;6.18;87.86
60974;BME280;46846;51.528;5.076;2023-11-21T02:38:43;100652.38;;;6.17;87.55
60974;BME280;46846;51.528;5.076;2023-11-21T02:41:08;100654.19;;;6.17;87.53
60974;BME280;46846;51.528;5.076;2023-11-21T02:43:33;100645.38;;;6.16;87.62
60974;BME280;46846;51.528;5.076;2023-11-21T02:45:59;100652.44;;;6.15;87.26
60974;BME280;46846;51.528;5.076;2023-11-21T02:48:24;100654.19;;;6.15;87.21
60974;BME280;46846;51.528;5.076;2023-11-21T02:50:50;100647.19;;;6.14;87.60
60974;BME280;46846;51.528;5.076;2023-11-21T02:53:16;100648.94;;;6.13;87.68
60974;BME280;46846;51.528;5.076;2023-11-21T02:55:41;100654.22;;;6.13;87.53
60974;BME280;46846;51.528;5.076;2023-11-21T02:58:06;100648.97;;;6.12;87.86
60974;BME280;46846;51.528;5.076;2023-11-21T03:00:32;100648.09;;;6.11;87.63
60974;BME280;46846;51.528;5.076;2023-11-21T03:02:57;100655.16;;;6.11;87.50
60974;BME280;46846;51.528;5.076;2023-11-21T03:05:22;100648.09;;;6.11;87.12
60974;BME280;46846;51.528;5.076;2023-11-21T03:07:48;100648.09;;;6.11;87.51
60974;BME280;46846;51.528;5.076;2023-11-21T03:10:13;100652.53;;;6.11;87.39
60974;BME280;46846;51.528;5.076;2023-11-21T03:12:39;100646.44;;;6.07;87.58
60974;BME280;46846;51.528;5.076;2023-11-21T03:15:05;100649.94;;;6.08;87.54
60974;BME280;46846;51.528;5.076;2023-11-21T03:17:31;100661.38;;;6.08;87.63
60974;BME280;46846;51.528;5.076;2023-11-21T03:19:56;100670.22;;;6.07;87.32
60974;BME280;46846;51.528;5.076;2023-11-21T03:22:22;100671.97;;;6.07;87.21
60974;BME280;46846;51.528;5.076;2023-11-21T03:24:47;100677.25;;;6.07;87.56
60974;BME280;46846;51.528;5.076;2023-11-21T03:27:12;100671.09;;;6.06;87.19
60974;BME280;46846;51.528;5.076;2023-11-21T03:29:38;100668.44;;;6.06;87.46
60974;BME280;46846;51.528;5.076;2023-11-21T03:32:04;100664.97;;;6.02;87.72
60974;BME280;46846;51.528;5.076;2023-11-21T03:34:29;100661.50;;;6.02;87.60
60974;BME280;46846;51.528;5.076;2023-11-21T03:36:55;100672.03;;;6.04;87.34
60974;BME280;46846;51.528;5.076;2023-11-21T03:39:20;100680.84;;;6.02;87.51
60974;BME280;46846;51.528;5.076;2023-11-21T03:41:46;100681.72;;;6.03;87.77
60974;BME280;46846;51.528;5.076;2023-11-21T03:44:11;100682.63;;;6.02;87.62
60974;BME280;46846;51.528;5.076;2023-11-21T03:46:37;100682.59;;;6.00;87.19
60974;BME280;46846;51.528;5.076;2023-11-21T03:49:02;100686.13;;;6.01;87.16
60974;BME280;46846;51.528;5.076;2023-11-21T03:51:27;100681.75;;;6.00;87.60
60974;BME280;46846;51.528;5.076;2023-11-21T03:53:52;100680.00;;;5.99;87.58
60974;BME280;46846;51.528;5.076;2023-11-21T03:56:18;100684.41;;;5.98;87.47
60974;BME280;46846;51.528;5.076;2023-11-21T03:58:43;100680.88;;;5.99;87.40
60974;BME280;46846;51.528;5.076;2023-11-21T04:01:09;100680.88;;;5.99;87.71
60974;BME280;46846;51.528;5.076;2023-11-21T04:03:34;100687.06;;;5.98;87.15
60974;BME280;46846;51.528;5.076;2023-11-21T04:05:59;100687.94;;;5.99;87.53
60974;BME280;46846;51.528;5.076;2023-11-21T04:08:26;100683.53;;;5.98;87.34
60974;BME280;46846;51.528;5.076;2023-11-21T04:10:51;100694.09;;;5.98;87.55
60974;BME280;46846;51.528;5.076;2023-11-21T04:13:18;100701.16;;;5.97;87.78
60974;BME280;46846;51.528;5.076;2023-11-21T04:15:43;100709.09;;;5.97;87.46
60974;BME280;46846;51.528;5.076;2023-11-21T04:18:09;100703.81;;;5.96;87.66
60974;BME280;46846;51.528;5.076;2023-11-21T04:20:34;100709.09;;;5.97;87.39
60974;BME280;46846;51.528;5.076;2023-11-21T04:22:59;100720.56;;;5.96;87.75
60974;BME280;46846;51.528;5.076;2023-11-21T04:25:24;100727.59;;;5.96;87.49
60974;BME280;46846;51.528;5.076;2023-11-21T04:27:50;100730.25;;;5.94;87.12
60974;BME280;46846;51.528;5.076;2023-11-21T04:30:15;100735.53;;;5.94;87.32
60974;BME280;46846;51.528;5.076;2023-11-21T04:32:40;100739.97;;;5.94;87.55
60974;BME280;46846;51.528;5.076;2023-11-21T04:35:07;100738.22;;;5.93;87.41
60974;BME280;46846;51.528;5.076;2023-11-21T04:37:33;100738.22;;;5.93;87.54
60974;BME280;46846;51.528;5.076;2023-11-21T04:39:58;100738.22;;;5.93;87.40
60974;BME280;46846;51.528;5.076;2023-11-21T04:42:24;100742.63;;;5.92;87.40
60974;BME280;46846;51.528;5.076;2023-11-21T04:44:49;100733.84;;;5.92;87.14
60974;BME280;46846;51.528;5.076;2023-11-21T04:47:14;100746.16;;;5.93;87.36
60974;BME280;46846;51.528;5.076;2023-11-21T04:49:43;100745.28;;;5.91;87.58
60974;BME280;46846;51.528;5.076;2023-11-21T04:52:08;100750.56;;;5.91;87.39
60974;BME280;46846;51.528;5.076;2023-11-21T04:54:34;100753.19;;;5.91;87.79
60974;BME280;46846;51.528;5.076;2023-11-21T04:57:00;100760.25;;;5.92;87.66
60974;BME280;46846;51.528;5.076;2023-11-21T04:59:25;100762.00;;;5.91;87.45
60974;BME280;46846;51.528;5.076;2023-11-21T05:01:52;100756.72;;;5.91;87.30
60974;BME280;46846;51.528;5.076;2023-11-21T05:04:18;100757.59;;;5.92;87.60
60974;BME280;46846;51.528;5.076;2023-11-21T05:06:44;100760.25;;;5.92;87.08
60974;BME280;46846;51.528;5.076;2023-11-21T05:09:09;100760.25;;;5.92;87.55
60974;BME280;46846;51.528;5.076;2023-11-21T05:11:37;100759.38;;;5.91;87.51
60974;BME280;46846;51.528;5.076;2023-11-21T05:14:05;100756.72;;;5.91;87.36
60974;BME280;46846;51.528;5.076;2023-11-21T05:16:33;100759.38;;;5.91;87.17
60974;BME280;46846;51.528;5.076;2023-11-21T05:19:00;100763.75;;;5.91;87.41
60974;BME280;46846;51.528;5.076;2023-11-21T05:21:29;100772.56;;;5.91;87.54
60974;BME280;46846;51.528;5.076;2023-11-21T05:23:57;100772.56;;;5.91;87.71
60974;BME280;46846;51.528;5.076;2023-11-21T05:26:23;100779.59;;;5.92;87.78
60974;BME280;46846;51.528;5.076;2023-11-21T05:28:48;100784.88;;;5.92;87.22
60974;BME280;46846;51.528;5.076;2023-11-21T05:31:13;100779.59;;;5.92;87.40
60974;BME280;46846;51.528;5.076;2023-11-21T05:33:38;100782.22;;;5.92;87.48
60974;BME280;46846;51.528;5.076;2023-11-21T05:36:04;100790.16;;;5.92;87.58
60974;BME280;46846;51.528;5.076;2023-11-21T05:38:29;100791.03;;;5.93;87.38
60974;BME280;46846;51.528;5.076;2023-11-21T05:40:54;100795.44;;;5.92;87.51
60974;BME280;46846;51.528;5.076;2023-11-21T05:43:20;100803.34;;;5.92;87.36
60974;BME280;46846;51.528;5.076;2023-11-21T05:45:45;100799.88;;;5.92;87.36
60974;BME280;46846;51.528;5.076;2023-11-21T05:48:10;100803.34;;;5.92;87.67
60974;BME280;46846;51.528;5.076;2023-11-21T05:50:35;100813.06;;;5.92;87.67
60974;BME280;46846;51.528;5.076;2023-11-21T05:53:02;100810.44;;;5.92;87.33
60974;BME280;46846;51.528;5.076;2023-11-21T05:55:28;100816.56;;;5.91;87.57
60974;BME280;46846;51.528;5.076;2023-11-21T05:57:53;100810.44;;;5.92;87.54
60974;BME280;46846;51.528;5.076;2023-11-21T06:00:19;100821.00;;;5.92;87.07
60974;BME280;46846;51.528;5.076;2023-11-21T06:02:47;100828.88;;;5.93;87.56
60974;BME280;46846;51.528;5.076;2023-11-21T06:05:12;100820.09;;;5.93;87.16
60974;BME280;46846;51.528;5.076;2023-11-21T06:07:37;100826.28;;;5.92;87.49
60974;BME280;46846;51.528;5.076;2023-11-21T06:10:04;100826.28;;;5.92;87.10
60974;BME280;46846;51.528;5.076;2023-11-21T06:12:31;100835.06;;;5.92;87.37
60974;BME280;46846;51.528;5.076;2023-11-21T06:15:00;100835.94;;;5.93;87.48
60974;BME280;46846;51.528;5.076;2023-11-21T06:17:26;100836.78;;;5.93;87.56
60974;BME280;46846;51.528;5.076;2023-11-21T06:19:53;100847.34;;;5.93;87.34
60974;BME280;46846;51.528;5.076;2023-11-21T06:22:18;100842.97;;;5.94;87.61
60974;BME280;46846;51.528;5.076;2023-11-21T06:24:43;100844.69;;;5.95;87.19
60974;BME280;46846;51.528;5.076;2023-11-21T06:27:08;100845.59;;;5.94;87.44
60974;BME280;46846;51.528;5.076;2023-11-21T06:29:34;100843.88;;;5.93;87.25
60974;BME280;46846;51.528;5.076;2023-11-21T06:31:59;100850.88;;;5.94;87.50
60974;BME280;46846;51.528;5.076;2023-11-21T06:34:24;100849.16;;;5.93;87.22
60974;BME280;46846;51.528;5.076;2023-11-21T06:36:49;100860.56;;;5.95;87.23
60974;BME280;46846;51.528;5.076;2023-11-21T06:39:15;100861.44;;;5.94;87.49
60974;BME280;46846;51.528;5.076;2023-11-21T06:41:42;100864.94;;;5.94;87.17
60974;BME280;46846;51.528;5.076;2023-11-21T06:44:08;100865.84;;;5.95;87.21
60974;BME280;46846;51.528;5.076;2023-11-21T06:46:33;100859.66;;;5.96;87.10
60974;BME280;46846;51.528;5.076;2023-11-21T06:48:59;100871.97;;;5.97;87.54
60974;BME280;46846;51.528;5.076;2023-11-21T06:51:24;100872.84;;;5.96;86.98
60974;BME280;46846;51.528;5.076;2023-11-21T06:53:49;100869.31;;;5.97;87.11
60974;BME280;46846;51.528;5.076;2023-11-21T06:56:15;100878.13;;;5.97;87.16
60974;BME280;46846;51.528;5.076;2023-11-21T06:58:41;100880.75;;;5.99;87.44
60974;BME280;46846;51.528;5.076;2023-11-21T07:01:06;100878.13;;;5.99;87.27
60974;BME280;46846;51.528;5.076;2023-11-21T07:03:31;100887.78;;;6.00;87.42
60974;BME280;46846;51.528;5.076;2023-11-21T07:05:56;100889.53;;;6.01;87.41
60974;BME280;46846;51.528;5.076;2023-11-21T07:08:22;100889.53;;;6.01;87.39
60974;BME280;46846;51.528;5.076;2023-11-21T07:10:47;100896.56;;;6.02;86.84
60974;BME280;46846;51.528;5.076;2023-11-21T07:13:13;100890.41;;;6.03;87.27
60974;BME280;46846;51.528;5.076;2023-11-21T07:15:38;100899.22;;;6.02;87.16
60974;BME280;46846;51.528;5.076;2023-11-21T07:18:03;100904.50;;;6.04;87.18
60974;BME280;46846;51.528;5.076;2023-11-21T07:20:28;100912.41;;;6.04;87.21
60974;BME280;46846;51.528;5.076;2023-11-21T07:22:55;100919.44;;;6.03;86.95
60974;BME280;46846;51.528;5.076;2023-11-21T07:25:21;100913.28;;;6.04;87.21
60974;BME280;46846;51.528;5.076;2023-11-21T07:27:47;100910.63;;;6.04;86.88
60974;BME280;46846;51.528;5.076;2023-11-21T07:30:12;100918.56;;;6.04;87.40
60974;BME280;46846;51.528;5.076;2023-11-21T07:32:38;100923.00;;;6.02;86.97
60974;BME280;46846;51.528;5.076;2023-11-21T07:35:04;100922.97;;;6.04;87.37
60974;BME280;46846;51.528;5.076;2023-11-21T07:37:30;100930.03;;;6.03;87.19
60974;BME280;46846;51.528;5.076;2023-11-21T07:39:55;100927.38;;;6.03;86.97
60974;BME280;46846;51.528;5.076;2023-11-21T07:42:23;100939.69;;;6.04;86.83
60974;BME280;46846;51.528;5.076;2023-11-21T07:44:51;100936.13;;;6.07;87.18
60974;BME280;46846;51.528;5.076;2023-11-21T07:47:17;100949.31;;;6.08;87.32
60974;BME280;46846;51.528;5.076;2023-11-21T07:49:42;100944.03;;;6.08;87.14
60974;BME280;46846;51.528;5.076;2023-11-21T07:52:09;100951.94;;;6.10;87.06
60974;BME280;46846;51.528;5.076;2023-11-21T07:54:34;100952.75;;;6.13;87.21
60974;BME280;46846;51.528;5.076;2023-11-21T07:57:01;100951.91;;;6.13;87.41
60974;BME280;46846;51.528;5.076;2023-11-21T07:59:26;100952.75;;;6.13;87.24
60974;BME280;46846;51.528;5.076;2023-11-21T08:01:51;100966.00;;;6.12;86.53
60974;BME280;46846;51.528;5.076;2023-11-21T08:04:16;100960.72;;;6.12;87.27
60974;BME280;46846;51.528;5.076;2023-11-21T08:06:42;100963.31;;;6.13;87.22
60974;BME280;46846;51.528;5.076;2023-11-21T08:09:07;100972.19;;;6.11;86.61
60974;BME280;46846;51.528;5.076;2023-11-21T08:11:33;100973.94;;;6.12;87.26
60974;BME280;46846;51.528;5.076;2023-11-21T08:13:58;100977.44;;;6.14;87.36
60974;BME280;46846;51.528;5.076;2023-11-21T08:16:24;100982.69;;;6.15;87.20
60974;BME280;46846;51.528;5.076;2023-11-21T08:18:50;100982.66;;;6.17;87.31
60974;BME280;46846;51.528;5.076;2023-11-21T08:21:16;100981.78;;;6.18;86.84
60974;BME280;46846;51.528;5.076;2023-11-21T08:23:41;100983.53;;;6.19;86.93
60974;BME280;46846;51.528;5.076;2023-11-21T08:26:06;100984.38;;;6.20;86.76
60974;BME280;46846;51.528;5.076;2023-11-21T08:28:32;100996.75;;;6.19;87.13
60974;BME280;46846;51.528;5.076;2023-11-21T08:30:57;101002.94;;;6.18;86.75
60974;BME280;46846;51.528;5.076;2023-11-21T08:33:22;101002.03;;;6.18;86.67
60974;BME280;46846;51.528;5.076;2023-11-21T08:35:48;100994.94;;;6.20;87.07
60974;BME280;46846;51.528;5.076;2023-11-21T08:38:13;101008.16;;;6.21;87.05
60974;BME280;46846;51.528;5.076;2023-11-21T08:40:38;101016.06;;;6.21;87.11
60974;BME280;46846;51.528;5.076;2023-11-21T08:43:03;101011.69;;;6.22;86.88
60974;BME280;46846;51.528;5.076;2023-11-21T08:45:33;101015.16;;;6.24;87.29
60974;BME280;46846;51.528;5.076;2023-11-21T08:47:59;101015.16;;;6.25;87.46
60974;BME280;46846;51.528;5.076;2023-11-21T08:50:24;101022.19;;;6.26;86.91
60974;BME280;46846;51.528;5.076;2023-11-21T08:52:49;101023.09;;;6.22;87.07
60974;BME280;46846;51.528;5.076;2023-11-21T08:55:16;101017.75;;;6.28;87.59
60974;BME280;46846;51.528;5.076;2023-11-21T08:57:43;101018.59;;;6.31;87.86
60974;BME280;46846;51.528;5.076;2023-11-21T09:00:08;101016.81;;;6.33;87.73
60974;BME280;46846;51.528;5.076;2023-11-21T09:02:40;101023.03;;;6.30;87.93
60974;BME280;46846;51.528;5.076;2023-11-21T09:05:11;101029.22;;;6.26;87.37
60974;BME280;46846;51.528;5.076;2023-11-21T09:07:37;101031.81;;;6.31;88.09
60974;BME280;46846;51.528;5.076;2023-11-21T09:10:03;101031.78;;;6.32;88.28
60974;BME280;46846;51.528;5.076;2023-11-21T09:12:29;101037.06;;;6.34;87.90
60974;BME280;46846;51.528;5.076;2023-11-21T09:14:54;101041.47;;;6.33;87.60
60974;BME280;46846;51.528;5.076;2023-11-21T09:17:19;101042.28;;;6.37;88.45
60974;BME280;46846;51.528;5.076;2023-11-21T09:19:45;101052.00;;;6.36;88.00
60974;BME280;46846;51.528;5.076;2023-11-21T09:22:14;101048.47;;;6.37;88.29
60974;BME280;46846;51.528;5.076;2023-11-21T09:24:40;101049.25;;;6.42;89.02
60974;BME280;46846;51.528;5.076;2023-11-21T09:27:05;101057.13;;;6.47;89.51
60974;BME280;46846;51.528;5.076;2023-11-21T09:29:30;101061.50;;;6.51;90.02
60974;BME280;46846;51.528;5.076;2023-11-21T09:31:56;101057.94;;;6.54;90.00
60974;BME280;46846;51.528;5.076;2023-11-21T09:34:24;101058.78;;;6.56;89.97
60974;BME280;46846;51.528;5.076;2023-11-21T09:36:50;101068.44;;;6.57;90.29
60974;BME280;46846;51.528;5.076;2023-11-21T09:39:16;101069.31;;;6.59;90.66
60974;BME280;46846;51.528;5.076;2023-11-21T09:41:43;101071.19;;;6.51;88.93
60974;BME280;46846;51.528;5.076;2023-11-21T09:44:11;101078.16;;;6.56;90.62
60974;BME280;46846;51.528;5.076;2023-11-21T09:46:39;101080.72;;;6.63;91.20
60974;BME280;46846;51.528;5.076;2023-11-21T09:49:05;101075.38;;;6.67;91.75
60974;BME280;46846;51.528;5.076;2023-11-21T09:51:37;101079.84;;;6.62;90.27
60974;BME280;46846;51.528;5.076;2023-11-21T09:54:05;101089.53;;;6.63;91.17
60974;BME280;46846;51.528;5.076;2023-11-21T09:56:32;101093.00;;;6.65;91.38
60974;BME280;46846;51.528;5.076;2023-11-21T09:58:57;101092.16;;;6.63;91.09
60974;BME280;46846;51.528;5.076;2023-11-21T10:01:23;101091.31;;;6.61;90.83
60974;BME280;46846;51.528;5.076;2023-11-21T10:03:50;101093.00;;;6.65;91.37
60974;BME280;46846;51.528;5.076;2023-11-21T10:06:15;101096.47;;;6.70;92.16
60974;BME280;46846;51.528;5.076;2023-11-21T10:08:42;101096.41;;;6.75;92.44
60974;BME280;46846;51.528;5.076;2023-11-21T10:11:08;101099.03;;;6.75;92.58
60974;BME280;46846;51.528;5.076;2023-11-21T10:13:36;101103.44;;;6.78;93.27
60974;BME280;46846;51.528;5.076;2023-11-21T10:16:02;101115.75;;;6.79;93.47
60974;BME280;46846;51.528;5.076;2023-11-21T10:18:30;101117.47;;;6.83;94.01
60974;BME280;46846;51.528;5.076;2023-11-21T10:20:59;101119.22;;;6.84;94.39
60974;BME280;46846;51.528;5.076;2023-11-21T10:23:24;101126.25;;;6.85;94.59
60974;BME280;46846;51.528;5.076;2023-11-21T10:25:53;101124.44;;;6.87;94.81
60974;BME280;46846;51.528;5.076;2023-11-21T10:28:20;101127.06;;;6.89;95.18
60974;BME280;46846;51.528;5.076;2023-11-21T10:30:45;101136.75;;;6.91;94.98
60974;BME280;46846;51.528;5.076;2023-11-21T10:33:11;101138.50;;;6.92;95.38
60974;BME280;46846;51.528;5.076;2023-11-21T10:35:42;101152.63;;;6.90;94.87
60974;BME280;46846;51.528;5.076;2023-11-21T10:38:07;101150.81;;;6.92;94.93
60974;BME280;46846;51.528;5.076;2023-11-21T10:40:38;101147.25;;;6.96;95.02
60974;BME280;46846;51.528;5.076;2023-11-21T10:43:07;101145.34;;;7.06;95.62
60974;BME280;46846;51.528;5.076;2023-11-21T10:45:37;101158.47;;;7.14;95.76
60974;BME280;46846;51.528;5.076;2023-11-21T10:48:06;101157.50;;;7.19;95.22
60974;BME280;46846;51.528;5.076;2023-11-21T10:50:36;101153.06;;;7.23;95.19
60974;BME280;46846;51.528;5.076;2023-11-21T10:53:02;101156.56;;;7.23;95.18
60974;BME280;46846;51.528;5.076;2023-11-21T10:55:28;101148.63;;;7.23;95.23
60974;BME280;46846;51.528;5.076;2023-11-21T10:57:54;101145.03;;;7.26;95.25
60974;BME280;46846;51.528;5.076;2023-11-21T11:00:23;101139.75;;;7.28;95.50
60974;BME280;46846;51.528;5.076;2023-11-21T11:02:50;101135.34;;;7.27;95.27
60974;BME280;46846;51.528;5.076;2023-11-21T11:05:16;101145.03;;;7.28;95.52
60974;BME280;46846;51.528;5.076;2023-11-21T11:07:44;101148.53;;;7.30;95.78
60974;BME280;46846;51.528;5.076;2023-11-21T11:10:09;101155.56;;;7.31;95.67
60974;BME280;46846;51.528;5.076;2023-11-21T11:12:39;101149.44;;;7.27;95.69
60974;BME280;46846;51.528;5.076;2023-11-21T11:15:05;101158.22;;;7.29;95.88
60974;BME280;46846;51.528;5.076;2023-11-21T11:17:30;101163.50;;;7.31;96.07
60974;BME280;46846;51.528;5.076;2023-11-21T11:19:57;101174.94;;;7.33;96.13
60974;BME280;46846;51.528;5.076;2023-11-21T11:22:37;101176.75;;;7.29;95.90
60974;BME280;46846;51.528;5.076;2023-11-21T11:25:07;101180.22;;;7.33;96.20
60974;BME280;46846;51.528;5.076;2023-11-21T11:30:11;101177.63;;;7.31;95.69
60974;BME280;46846;51.528;5.076;2023-11-21T11:32:54;101182.00;;;7.34;95.98
60974;BME280;46846;51.528;5.076;2023-11-21T11:35:42;101178.47;;;7.33;96.20
60974;BME280;46846;51.528;5.076;2023-11-21T11:38:12;101189.13;;;7.29;95.30
60974;BME280;46846;51.528;5.076;2023-11-21T11:40:44;101187.31;;;7.32;95.32
60974;BME280;46846;51.528;5.076;2023-11-21T11:43:10;101187.28;;;7.34;95.54
60974;BME280;46846;51.528;5.076;2023-11-21T11:45:36;101187.22;;;7.38;96.14
60974;BME280;46846;51.528;5.076;2023-11-21T11:48:06;101190.72;;;7.41;96.28
60974;BME280;46846;51.528;5.076;2023-11-21T11:50:31;101196.94;;;7.38;95.69
60974;BME280;46846;51.528;5.076;2023-11-21T11:53:12;101204.09;;;7.31;94.17
60974;BME280;46846;51.528;5.076;2023-11-21T11:55:37;101199.63;;;7.35;94.98
60974;BME280;46846;51.528;5.076;2023-11-21T11:58:04;101210.22;;;7.35;94.62
60974;BME280;46846;51.528;5.076;2023-11-21T12:00:33;101211.06;;;7.38;95.28
60974;BME280;46846;51.528;5.076;2023-11-21T12:03:02;101212.72;;;7.44;95.95
60974;BME280;46846;51.528;5.076;2023-11-21T12:05:28;101208.41;;;7.37;94.71
60974;BME280;46846;51.528;5.076;2023-11-21T12:07:55;101217.34;;;7.28;92.22
60974;BME280;46846;51.528;5.076;2023-11-21T12:10:23;101214.53;;;7.41;94.91
60974;BME280;46846;51.528;5.076;2023-11-21T12:12:50;101218.00;;;7.44;95.64
60974;BME280;46846;51.528;5.076;2023-11-21T12:15:17;101225.06;;;7.45;95.97
60974;BME280;46846;51.528;5.076;2023-11-21T12:17:44;101227.63;;;7.50;96.40
60974;BME280;46846;51.528;5.076;2023-11-21T12:20:10;101226.78;;;7.48;95.68
60974;BME280;46846;51.528;5.076;2023-11-21T12:22:45;101227.72;;;7.45;95.08
60974;BME280;46846;51.528;5.076;2023-11-21T12:25:14;101228.72;;;7.36;93.35
60974;BME280;46846;51.528;5.076;2023-11-21T12:27:42;101230.59;;;7.28;92.01
60974;BME280;46846;51.528;5.076;2023-11-21T12:30:07;101241.84;;;7.43;94.54
60974;BME280;46846;51.528;5.076;2023-11-21T12:32:38;101240.25;;;7.34;92.90
60974;BME280;46846;51.528;5.076;2023-11-21T12:35:03;101238.53;;;7.30;91.93
60974;BME280;46846;51.528;5.076;2023-11-21T12:37:31;101247.19;;;7.41;93.90
60974;BME280;46846;51.528;5.076;2023-11-21T12:39:56;101244.59;;;7.36;92.44
60974;BME280;46846;51.528;5.076;2023-11-21T12:42:23;101246.31;;;7.41;93.30
60974;BME280;46846;51.528;5.076;2023-11-21T12:44:48;101249.72;;;7.47;94.45
60974;BME280;46846;51.528;5.076;2023-11-21T12:47:16;101254.25;;;7.42;92.83
60974;BME280;46846;51.528;5.076;2023-11-21T12:49:41;101252.34;;;7.50;94.46
60974;BME280;46846;51.528;5.076;2023-11-21T12:52:09;101258.56;;;7.48;93.73
60974;BME280;46846;51.528;5.076;2023-11-21T12:54:34;101261.19;;;7.49;94.12
60974;BME280;46846;51.528;5.076;2023-11-21T12:57:00;101263.00;;;7.46;92.60